Historyczne dane pomiarowe

Dodano dane terminowe – wersja testowa.

Dane z okresu 1951-2019

Wersja bazy: 1.34 [2019-03-16, lista zmian], aktualizacja planowana na 2019-04-15

Dane meteo z obszaru Polski uzyskane na podstawie danych udostępnionych przez Instytut Meteorologii i Gospodarki Wodnej – Państwowy Instytut Badawczy.

 

Wybierz Datę:    

       

TemperaturaWilgotnośćWiatrCiśnienieOpadyŚniegCzas trwania zjawisk
 Stacja t tx tn tng RH VA  wxwx mslp ppp RRR   cm mm wxwxwxwxwxwxwx
1956-11-09 -6.7 -1.6-10.2- 65.8- 0.3 0.7---- 0.0-- 8---------
1956-11-08 -7.4 -3.3-13.0- 70.0- 0.0 0.7---- 0.0-- 8---------
1956-11-07 -5.1 0.0 -6.6- 67.8- 3.3 3.3---- 0.0-- 8---------
1956-11-06 -0.3 3.5 -1.9- 91.3- 5.7 5.7---- 2.6-- 8---------
1956-11-05 0.8 4.6 -1.4- 91.3- 8.0 5.7---- 9.8------------
1956-11-04 0.2 3.3 -1.7- 88.5- 2.7 5.3---- 0.0------------
1956-11-03 0.0 2.1 -2.4- 81.0- 8.0 0.0---- 0.0------------
1956-11-02 1.4 3.4 -2.7- 87.0- 4.7 0.7---- 0.0------------
1956-11-01 0.6 2.5 -2.4- 94.5- 8.0 4.0---- 6.6------------
1956-10-31 -5.2 -1.7-14.2- 81.5- 5.3 3.0---- 0.0-- 1---------
1956-10-30 -6.0 -1.0 -8.5- 76.8- 5.3 1.7---- 0.0-- 2---------
1956-10-29 1.0 7.7 -4.1- 83.8- 8.0 4.3---- 3.8-- 4---------
1956-10-28 4.4 7.1 3.2- 90.8- 8.0 3.3---- 3.2------------
1956-10-27 6.7 12.1 5.5- 92.8- 8.0 0.3---- 2.8------------
1956-10-26 7.2 11.1 5.9- 93.8- 8.0 1.3---- 2.6------------
1956-10-25 11.2 14.1 9.5- 84.3- 6.3 2.0---- 0.0------------
1956-10-24 10.4 11.6 7.6- 84.3- 7.3 3.0---- 0.1------------
1956-10-23 9.2 10.9 8.0- 85.0- 8.0 2.7---- 0.0------------
1956-10-22 10.8 12.3 10.0- 81.3- 8.0 4.3---- 0.0------------
1956-10-21 11.0 12.9 8.3- 93.5- 8.0 3.0---- 0.0------------
1956-10-20 8.6 10.0 5.8- 88.0- 8.0 2.3---- 0.0------------
1956-10-19 9.1 11.7 7.2- 93.8- 5.7 2.0---- 2.6------------
1956-10-18 7.9 10.6 4.6- 87.3- 8.0 3.0---- 1.6------------
1956-10-17 7.4 12.6 -0.8- 81.3- 2.0 0.3---- 0.0------------
1956-10-16 3.0 9.0 -0.1- 83.8- 4.7 1.0---- 0.0------------
1956-10-15 5.1 8.9 3.3- 85.3- 2.7 2.7---- 0.0------------
1956-10-14 6.1 9.2 3.1- 83.8- 5.0 4.3---- 1.3------------
1956-10-13 7.9 10.0 5.5- 79.8- 8.0 9.3---- 17.6------------
1956-10-12 9.4 11.3 8.4- 82.0- 8.0 4.3---- 1.7------------
1956-10-11 8.2 9.8 4.5- 92.8- 8.0 4.3---- 1.4------------
1956-10-10 3.9 8.5 -2.2- 87.5- 7.7 2.7---- 3.8------------
1956-10-09 6.0 7.5 2.1- 90.8- 5.7 2.3---- 4.6------------
1956-10-08 3.8 8.5 2.1- 86.5- 5.3 3.3---- 0.8------------
1956-10-07 6.1 8.0 2.8- 87.8- 8.0 14.3---- 14.5------------
1956-10-06 7.1 8.9 2.1- 95.5- 8.0 1.3---- 52.6------------
1956-10-05 9.6 12.5 5.6- 90.8- 6.7 3.7---- 3.7------------
1956-10-04 9.4 12.6 6.0- 85.5- 7.0 2.7---- 0.0------------
1956-10-03 12.6 16.7 11.1- 87.3- 5.3 4.7---- 0.8------------
1956-10-02 15.7 22.3 9.2- 83.0- 3.3 4.7---- 2.7------------
1956-10-01 13.0 18.6 5.0- 83.8- 3.7 1.0---- 7.3------------
1956-09-30 12.4 16.8 9.5- 77.0- 1.7 6.7---- 0.0------------
1956-09-29 14.3 18.1 11.8- 74.0- 4.7 10.0---- 0.3------------
1956-09-28 13.6 18.1 10.5- 89.3- 3.7 2.7---- 0.0------------
1956-09-27 14.0 19.7 4.9- 71.3- 2.3 3.0---- 0.0------------
1956-09-26 11.4 20.7 1.1- 81.8- 0.0 1.0---- 0.0------------
1956-09-25 9.0 15.9 0.6- 66.3- 0.0 2.3---- 0.0------------
1956-09-24 5.2 13.6 -1.1- 76.5- 0.0 0.7---- 0.0------------
1956-09-23 5.0 12.1 0.9- 79.3- 2.0 1.3---- 0.0------------
1956-09-22 8.4 15.6 4.3- 85.8- 5.3 1.3---- 0.0------------
1956-09-21 10.4 16.6 0.6- 80.5- 2.7 2.0---- 0.0------------
1956-09-20 10.8 14.4 1.3- 85.3- 5.3 0.7---- 0.0------------
1956-09-19 6.8 14.6 1.6- 86.3- 5.3 2.0---- 0.1------------
1956-09-18 6.9 12.1 3.6- 84.8- 6.7 1.3---- 0.0------------
1956-09-17 7.3 13.3 4.4- 85.5- 6.7 4.7---- 0.2------------
1956-09-16 9.2 13.3 5.1- 85.5- 7.3 4.0---- 4.6------------
1956-09-15 9.9 15.1 3.1- 79.8- 5.0 5.7---- 0.0------------
1956-09-14 7.7 14.9 4.4- 88.8- 4.3 2.0---- 0.0------------
1956-09-13 9.2 14.6 4.6- 84.8- 2.7 1.7---- 0.0------------
1956-09-12 9.4 13.3 7.5- 92.0- 6.7 1.7---- 16.8------------
1956-09-11 11.7 15.1 10.5- 87.5- 5.3 3.0---- 1.4------------
261.3 ms

 

Źródłem pochodzenia danych jest Instytut Meteorologii i Gospodarki Wodnej – Państwowy Instytut Badawczy. Dane Instytutu Meteorologii i Gospodarki Wodnej – Państwowego Instytutu Badawczego zostały przetworzone.

Dane źródłowe można odnaleźć na stronie https://dane.imgw.pl